Butler, OK (73625)

11:44 AM CDT on July 28, 2014 (GMT -0500)
Clinton-Sherman (KCSM) Elev 1923 ft | 35.34 °N, 99.20 °W | Change Station

Current weather conditions updated 51 minutes ago

Light Rain
Light Rain
69 °F
Feels Like 69 °F
N
12
Wind Variable Wind from NW

Today is forecast to be Cooler than yesterday.

Today
High -- | Low -- °F
--% Chance of Precip.
Yesterday
High -- | Low -- °F
Precip. -- in
6:42 AM 8:44 PM
Waxing Crescent, 3% visible
Pressure 30.30 in
Visibility 10.0 miles
Clouds Overcast 7000 ft
Dew Point 65 °F
Humidity 87%
Rainfall 1.06 in
Snow Depth Not available.
UV 2 out of 12
Pollen 6.00 out of 12
Air Quality Not available.
Flu Activity Not available.
METAR KCSM 281553Z 31010KT 10SM -RA OVC070 21/18 A3036 RMK AO2 SLP258 P0001 T02060183

More Conditions Fewer Conditions

Pressure 30.30 in
Visibility 10.0 miles
Clouds Overcast 7000 ft
Dew Point 65 °F
Humidity 87%
Rainfall 1.06 in
Snow Depth Not available.
UV 2 out of 12
Pollen 6.00 out of 12
Air Quality Not available.
Flu Activity Not available.
METAR KCSM 281553Z 31010KT 10SM -RA OVC070 21/18 A3036 RMK AO2 SLP258 P0001 T02060183

More Conditions Fewer Conditions

10-Day Weather Forecast

Almanac

Astronomy

Jul. 28, 2014 Rise Set
Actual Time 6:42 AM CDT 8:44 PM CDT
Civil Twilight 6:13 AM CDT 9:12 PM CDT
Nautical Twilight 5:39 AM CDT 9:47 PM CDT
Astronomical Twilight 5:01 AM CDT 10:24 PM CDT
Moon 8:19 AM CDT 9:33 PM CDT
Length of Visible Light 14h 59m
Length of Day
14h 02m
Tomorrow will be 1m 36s shorter.
Waxing Crescent, 3% of the Moon is Illuminated
Today
Waxing Crescent
Aug 3
First Quarter
Aug 10
Full
Aug 17
Last Quarter
Aug 25
New

Today's Extremes

State Highs State Lows

Community

WunderPhotos

Upload Photos

1,738,407 photos uploaded!

Nearby

Snow Depth

Station Depth Elevation
No new snow has been reported.

Earthquake Activity

City Distance Mag. Time & Date
Langston, Oklahoma 110 miles 3.2 9:03 AM CDT
2014-07-23
Langston, Oklahoma 110 miles 3.3 9:02 PM CDT
2014-07-22
Guthrie, Oklahoma 103 miles 2.5 7:25 PM CDT
2014-07-22
Helena, Oklahoma 90 miles 2.6 12:50 PM CDT
2014-07-22
Minimum magnitude displayed is 2.5.

Coastal Water Temperatures

Place Temperature
No Stations Reporting

Nearby Weather Stations

Station Location Temp. Heat Index Dew Point Humidity Wind Precip. Elev Updated Type
Custer City, Custer City, OK 75.6 °F 77 °F 66 °F 72% NNW  at  0.9 mph 0.00 in / hr 1775 ft 11:44 AM CDT Rapid Fire

Show More Stations Show Fewer Stations